createdAt,value
2018-04-07T00:00:23.996Z,11.68
2018-04-07T00:02:51.376Z,11.64
2018-04-07T00:05:18.769Z,11.64
2018-04-07T00:07:46.149Z,11.61
2018-04-07T00:10:13.529Z,11.58
2018-04-07T00:12:40.921Z,11.64
2018-04-07T00:15:08.300Z,11.66
2018-04-07T00:17:35.688Z,11.57
2018-04-07T00:20:03.085Z,11.55
2018-04-07T00:22:30.468Z,11.53
2018-04-07T00:24:57.851Z,11.51
2018-04-07T00:27:25.252Z,11.53
2018-04-07T00:29:52.656Z,11.49
2018-04-07T00:32:20.044Z,11.48
2018-04-07T00:34:47.440Z,11.45
2018-04-07T00:37:14.826Z,11.43
2018-04-07T00:39:42.205Z,11.43
2018-04-07T00:42:09.597Z,11.43
2018-04-07T00:44:36.985Z,11.40
2018-04-07T00:47:04.369Z,11.36
2018-04-07T00:49:31.825Z,11.38
2018-04-07T00:51:59.188Z,11.42
2018-04-07T00:54:26.568Z,11.37
2018-04-07T00:56:53.961Z,11.39
2018-04-07T00:59:21.340Z,11.29
2018-04-07T01:01:48.720Z,11.29
2018-04-07T01:04:16.116Z,11.22
2018-04-07T01:06:43.500Z,11.18
2018-04-07T01:09:10.881Z,11.19
2018-04-07T01:11:38.276Z,11.14
2018-04-07T01:14:05.667Z,11.09
2018-04-07T01:16:33.209Z,11.09
2018-04-07T01:19:00.605Z,11.09
2018-04-07T01:21:27.988Z,11.13
2018-04-07T01:23:55.370Z,11.12
2018-04-07T01:26:22.764Z,11.10
2018-04-07T01:28:50.149Z,11.03
2018-04-07T01:31:17.529Z,11.02
2018-04-07T01:33:45.003Z,11.05
2018-04-07T01:36:12.380Z,11.12
2018-04-07T01:38:39.768Z,11.12
2018-04-07T01:41:07.169Z,11.06
2018-04-07T01:43:34.550Z,11.10
2018-04-07T01:46:01.928Z,11.11
2018-04-07T01:48:29.332Z,11.12
2018-04-07T01:50:56.722Z,11.07
2018-04-07T01:53:24.109Z,10.99
2018-04-07T01:55:51.508Z,11.01
2018-04-07T01:58:18.888Z,10.99
2018-04-07T02:00:46.271Z,10.97
2018-04-07T02:03:13.665Z,10.90
2018-04-07T02:05:41.049Z,10.87
2018-04-07T02:08:08.428Z,10.78
2018-04-07T02:10:35.824Z,10.84
2018-04-07T02:13:03.213Z,10.84
2018-04-07T02:15:30.592Z,10.69
2018-04-07T02:17:57.984Z,10.75
2018-04-07T02:20:25.368Z,10.77
2018-04-07T02:22:52.750Z,10.76
2018-04-07T02:25:20.140Z,10.76
2018-04-07T02:27:47.520Z,10.73
2018-04-07T02:30:14.921Z,10.72
2018-04-07T02:32:42.303Z,10.67
2018-04-07T02:35:09.724Z,10.67
2018-04-07T02:37:37.133Z,10.66
2018-04-07T02:40:04.505Z,10.60
2018-04-07T02:42:31.954Z,10.59
2018-04-07T02:44:59.283Z,10.50
2018-04-07T02:47:26.660Z,10.57
2018-04-07T02:49:54.054Z,10.50
2018-04-07T02:52:21.432Z,10.47
2018-04-07T02:54:48.836Z,10.48
2018-04-07T02:57:16.218Z,10.43
2018-04-07T02:59:43.597Z,10.39
2018-04-07T03:02:10.984Z,10.44
2018-04-07T03:04:38.365Z,10.39
2018-04-07T03:07:05.770Z,10.38
2018-04-07T03:09:33.156Z,10.43
2018-04-07T03:12:00.540Z,10.38
2018-04-07T03:14:27.928Z,10.38
2018-04-07T03:16:55.316Z,10.29
2018-04-07T03:19:22.714Z,10.28
2018-04-07T03:21:50.096Z,10.26
2018-04-07T03:24:17.476Z,10.27
2018-04-07T03:26:44.964Z,10.22
2018-04-07T03:29:12.344Z,10.28
2018-04-07T03:31:39.742Z,10.28
2018-04-07T03:34:07.130Z,10.26
2018-04-07T03:36:34.576Z,10.21
2018-04-07T03:39:01.976Z,10.17
2018-04-07T03:41:29.349Z,10.27
2018-04-07T03:43:56.861Z,10.21
2018-04-07T03:46:24.252Z,10.19
2018-04-07T03:48:51.633Z,10.22
2018-04-07T03:51:19.016Z,10.16
2018-04-07T03:53:46.396Z,10.19
2018-04-07T03:56:13.862Z,10.15
2018-04-07T03:58:41.200Z,10.15
2018-04-07T04:01:08.584Z,10.11
2018-04-07T04:03:35.968Z,10.09
2018-04-07T04:06:03.355Z,10.11
2018-04-07T04:08:30.748Z,10.01
2018-04-07T04:10:58.132Z,9.94
2018-04-07T04:13:25.509Z,9.92
2018-04-07T04:15:52.896Z,9.93
2018-04-07T04:18:20.273Z,10.00
2018-04-07T04:20:47.716Z,9.94
2018-04-07T04:23:15.099Z,9.89
2018-04-07T04:25:42.481Z,9.91
2018-04-07T04:28:09.868Z,9.83
2018-04-07T04:30:37.249Z,9.80
2018-04-07T04:33:04.637Z,9.83
2018-04-07T04:35:32.013Z,9.70
2018-04-07T04:37:59.388Z,9.76
2018-04-07T04:40:26.777Z,9.70
2018-04-07T04:42:54.159Z,9.67
2018-04-07T04:45:21.796Z,9.75
2018-04-07T04:47:49.181Z,9.66
2018-04-07T04:50:16.558Z,9.62
2018-04-07T04:52:43.940Z,9.67
2018-04-07T04:55:11.321Z,9.68
2018-04-07T04:57:38.716Z,9.63
2018-04-07T05:00:06.100Z,9.63
2018-04-07T05:02:33.477Z,9.66
2018-04-07T05:05:00.853Z,9.61
2018-04-07T05:07:28.254Z,9.65
2018-04-07T05:09:55.644Z,9.55
2018-04-07T05:12:23.020Z,9.62
2018-04-07T05:14:50.400Z,9.64
2018-04-07T05:17:17.793Z,9.70
2018-04-07T05:19:45.172Z,9.67
2018-04-07T05:22:12.571Z,9.72
2018-04-07T05:24:39.954Z,9.73
2018-04-07T05:27:07.508Z,9.71
2018-04-07T05:29:34.897Z,9.75
2018-04-07T05:32:02.284Z,9.75
2018-04-07T05:34:29.929Z,9.75
2018-04-07T05:36:57.325Z,9.80
2018-04-07T05:39:24.706Z,9.81
2018-04-07T05:41:52.105Z,9.83
2018-04-07T05:44:19.492Z,9.87
2018-04-07T05:46:46.897Z,9.94
2018-04-07T05:49:14.277Z,9.95
2018-04-07T05:51:41.665Z,10.03
2018-04-07T05:54:09.062Z,10.12
2018-04-07T05:56:36.453Z,10.14
2018-04-07T05:59:03.850Z,10.17
2018-04-07T06:01:31.233Z,10.20
2018-04-07T06:03:58.616Z,10.23
2018-04-07T06:06:26.008Z,10.30
2018-04-07T06:08:53.396Z,10.33
2018-04-07T06:11:20.797Z,10.33
2018-04-07T06:13:48.180Z,10.44
2018-04-07T06:16:15.560Z,10.48
2018-04-07T06:18:42.952Z,10.58
2018-04-07T06:21:10.336Z,10.61
2018-04-07T06:23:37.733Z,10.67
2018-04-07T06:26:05.115Z,10.70
2018-04-07T06:28:32.496Z,10.80
2018-04-07T06:30:59.885Z,10.88
2018-04-07T06:33:27.277Z,10.94
2018-04-07T06:35:54.665Z,11.01
2018-04-07T06:38:22.054Z,11.01
2018-04-07T06:40:49.438Z,11.07
2018-04-07T06:43:16.836Z,11.21
2018-04-07T06:45:44.212Z,11.24
2018-04-07T06:48:11.628Z,11.33
2018-04-07T06:50:39.009Z,11.40
2018-04-07T06:53:06.390Z,11.43
2018-04-07T06:55:33.796Z,11.52
2018-04-07T06:58:01.184Z,11.58
2018-04-07T07:00:28.577Z,11.64
2018-04-07T07:02:55.968Z,11.74
2018-04-07T07:05:23.356Z,11.81
2018-04-07T07:07:50.746Z,11.91
2018-04-07T07:10:18.132Z,12.06
2018-04-07T07:12:45.530Z,12.17
2018-04-07T07:15:12.904Z,12.26
2018-04-07T07:17:40.297Z,12.34
2018-04-07T07:20:07.698Z,12.38
2018-04-07T07:22:35.076Z,12.47
2018-04-07T07:25:02.476Z,12.59
2018-04-07T07:27:29.860Z,12.65
2018-04-07T07:29:57.261Z,12.71
2018-04-07T07:32:24.640Z,12.75
2018-04-07T07:34:52.033Z,12.88
2018-04-07T07:37:19.427Z,12.92
2018-04-07T07:39:46.817Z,13.04
2018-04-07T07:42:14.204Z,13.14
2018-04-07T07:44:41.594Z,13.21
2018-04-07T07:47:08.968Z,13.36
2018-04-07T07:49:36.404Z,13.45
2018-04-07T07:52:03.797Z,13.62
2018-04-07T07:54:31.189Z,13.71
2018-04-07T07:56:58.564Z,13.77
2018-04-07T07:59:25.961Z,13.86
2018-04-07T08:01:53.336Z,13.95
2018-04-07T08:04:20.728Z,14.07
2018-04-07T08:06:48.105Z,14.22
2018-04-07T08:09:15.500Z,14.36
2018-04-07T08:11:42.881Z,14.42
2018-04-07T08:14:10.372Z,14.58
2018-04-07T08:16:37.753Z,14.63
2018-04-07T08:19:05.132Z,14.71
2018-04-07T08:21:32.529Z,14.81
2018-04-07T08:23:59.905Z,14.83
2018-04-07T08:26:27.307Z,14.98
2018-04-07T08:28:54.840Z,15.13
2018-04-07T08:31:22.230Z,15.31
2018-04-07T08:33:49.616Z,15.39
2018-04-07T08:36:17.024Z,15.50
2018-04-07T08:38:44.406Z,15.63
2018-04-07T08:41:11.800Z,15.77
2018-04-07T08:43:39.190Z,15.88
2018-04-07T08:46:06.927Z,16.01
2018-04-07T08:48:34.308Z,16.23
2018-04-07T08:51:01.731Z,16.45
2018-04-07T08:53:29.088Z,16.57
2018-04-07T08:55:56.465Z,16.74
2018-04-07T08:58:23.872Z,16.85
2018-04-07T09:00:51.253Z,17.07
2018-04-07T09:03:18.636Z,17.28
2018-04-07T09:05:46.024Z,17.54
2018-04-07T09:08:13.407Z,17.53
2018-04-07T09:10:40.799Z,17.65
2018-04-07T09:13:08.185Z,17.83
2018-04-07T09:15:35.572Z,17.90
2018-04-07T09:18:02.957Z,18.15
2018-04-07T09:20:30.356Z,18.30
2018-04-07T09:22:57.736Z,18.46
2018-04-07T09:25:25.120Z,18.59
2018-04-07T09:27:52.510Z,18.79
2018-04-07T09:30:19.900Z,19.02
2018-04-07T09:32:47.283Z,19.34
2018-04-07T09:35:14.667Z,19.40
2018-04-07T09:37:42.059Z,19.69
2018-04-07T09:40:09.445Z,19.87
2018-04-07T09:42:36.849Z,20.17
2018-04-07T09:45:04.232Z,20.51
2018-04-07T09:47:31.613Z,20.77
2018-04-07T09:49:58.997Z,20.91
2018-04-07T09:52:26.389Z,21.23
2018-04-07T09:54:53.780Z,21.44
2018-04-07T09:57:21.160Z,21.69
2018-04-07T09:59:48.939Z,21.76
2018-04-07T10:02:19.091Z,22.12
2018-04-07T10:04:46.468Z,22.41
2018-04-07T10:07:13.861Z,22.89
2018-04-07T10:09:41.245Z,23.27
2018-04-07T10:12:08.632Z,23.31
2018-04-07T10:14:36.016Z,23.62
2018-04-07T10:17:03.404Z,23.55
2018-04-07T10:19:30.794Z,23.80
2018-04-07T10:21:58.176Z,23.90
2018-04-07T10:24:25.561Z,24.11
2018-04-07T10:26:52.948Z,24.14
2018-04-07T10:29:20.340Z,24.37
2018-04-07T10:31:47.729Z,24.70
2018-04-07T10:34:15.116Z,25.05
2018-04-07T10:36:42.497Z,24.61
2018-04-07T10:39:09.888Z,24.75
2018-04-07T10:41:37.267Z,24.58
2018-04-07T10:44:04.656Z,24.85
2018-04-07T10:46:32.380Z,25.14
2018-04-07T10:48:59.773Z,25.51
2018-04-07T10:51:27.160Z,25.73
2018-04-07T10:53:54.541Z,25.76
2018-04-07T10:56:21.924Z,25.55
2018-04-07T10:58:49.332Z,25.15
2018-04-07T11:01:16.720Z,25.08
2018-04-07T11:03:44.236Z,25.03
2018-04-07T11:06:11.649Z,25.38
2018-04-07T11:08:39.024Z,25.57
2018-04-07T11:11:06.415Z,25.62
2018-04-07T11:13:33.812Z,25.14
2018-04-07T11:16:01.196Z,25.32
2018-04-07T11:18:28.585Z,25.73
2018-04-07T11:20:55.969Z,25.66
2018-04-07T11:23:23.360Z,25.95
2018-04-07T11:25:50.747Z,26.40
2018-04-07T11:28:18.160Z,26.66
2018-04-07T11:30:45.551Z,26.24
2018-04-07T11:33:12.928Z,25.85
2018-04-07T11:35:40.365Z,25.89
2018-04-07T11:38:07.748Z,26.02
2018-04-07T11:40:35.145Z,26.01
2018-04-07T11:43:02.608Z,25.84
2018-04-07T11:45:29.997Z,26.00
2018-04-07T11:47:57.376Z,26.05
2018-04-07T11:50:24.768Z,26.22
2018-04-07T11:52:52.161Z,26.14
2018-04-07T11:55:19.544Z,26.19
2018-04-07T11:57:46.928Z,26.02
2018-04-07T12:00:14.321Z,25.86
2018-04-07T12:02:41.737Z,25.86
2018-04-07T12:05:09.117Z,26.15
2018-04-07T12:07:36.496Z,26.46
2018-04-07T12:10:03.880Z,26.18
2018-04-07T12:12:31.273Z,26.49
2018-04-07T12:14:58.649Z,26.31
2018-04-07T12:17:26.129Z,26.29
2018-04-07T12:19:53.508Z,26.43
2018-04-07T12:22:20.902Z,26.68
2018-04-07T12:24:48.292Z,26.66
2018-04-07T12:27:15.936Z,26.75
2018-04-07T12:29:43.325Z,26.65
2018-04-07T12:32:10.796Z,27.08
2018-04-07T12:34:38.282Z,27.24
2018-04-07T12:37:05.778Z,26.71
2018-04-07T12:39:33.174Z,26.91
2018-04-07T12:42:00.556Z,26.47
2018-04-07T12:44:27.955Z,26.19
2018-04-07T12:46:55.332Z,25.89
2018-04-07T12:49:22.724Z,26.22
2018-04-07T12:51:50.112Z,26.29
2018-04-07T12:54:17.504Z,26.50
2018-04-07T12:56:44.884Z,26.65
2018-04-07T12:59:12.271Z,26.40
2018-04-07T13:01:39.661Z,26.59
2018-04-07T13:04:07.107Z,26.71
2018-04-07T13:06:34.488Z,26.76
2018-04-07T13:09:01.872Z,26.69
2018-04-07T13:11:29.252Z,26.71
2018-04-07T13:13:56.652Z,26.87
2018-04-07T13:16:24.045Z,26.99
2018-04-07T13:18:51.433Z,26.93
2018-04-07T13:21:18.816Z,27.12
2018-04-07T13:23:47.573Z,27.03
2018-04-07T13:26:14.956Z,26.92
2018-04-07T13:28:42.347Z,26.96
2018-04-07T13:31:09.900Z,27.12
2018-04-07T13:33:38.649Z,26.87
2018-04-07T13:36:04.711Z,26.90
2018-04-07T13:38:32.194Z,26.82
2018-04-07T13:40:59.636Z,26.65
2018-04-07T13:43:27.024Z,26.84
2018-04-07T13:45:54.412Z,26.68
2018-04-07T13:48:21.800Z,26.64
2018-04-07T13:50:49.196Z,26.43
2018-04-07T13:53:16.576Z,26.48
2018-04-07T13:55:43.960Z,26.41
2018-04-07T13:58:11.361Z,26.38
2018-04-07T14:00:38.782Z,26.37
2018-04-07T14:03:06.176Z,26.62
2018-04-07T14:05:33.564Z,26.54
2018-04-07T14:08:00.957Z,26.60
2018-04-07T14:10:28.345Z,26.72
2018-04-07T14:12:55.732Z,26.47
2018-04-07T14:15:23.121Z,26.32
2018-04-07T14:17:50.508Z,26.14
2018-04-07T14:20:17.896Z,26.10
2018-04-07T14:22:45.388Z,26.04
2018-04-07T14:25:12.810Z,26.17
2018-04-07T14:27:47.389Z,26.21
2018-04-07T14:30:14.964Z,25.94
2018-04-07T14:32:42.348Z,25.84
2018-04-07T14:35:09.732Z,25.76
2018-04-07T14:37:37.120Z,25.60
2018-04-07T14:40:04.502Z,25.55
2018-04-07T14:42:31.896Z,25.45
2018-04-07T14:44:59.276Z,25.49
2018-04-07T14:47:26.664Z,25.56
2018-04-07T14:49:54.052Z,25.60
2018-04-07T14:52:21.449Z,25.59
2018-04-07T14:54:48.879Z,25.50
2018-04-07T14:57:16.260Z,25.50
2018-04-07T14:59:43.649Z,25.40
2018-04-07T15:02:11.028Z,25.40
2018-04-07T15:04:38.416Z,25.46
2018-04-07T15:07:05.803Z,25.26
2018-04-07T15:09:33.192Z,25.28
2018-04-07T15:12:00.584Z,25.28
2018-04-07T15:14:27.980Z,25.22
2018-04-07T15:16:55.360Z,25.18
2018-04-07T15:19:22.745Z,25.22
2018-04-07T15:21:50.136Z,25.33
2018-04-07T15:24:17.518Z,25.30
2018-04-07T15:26:44.908Z,25.21
2018-04-07T15:29:12.300Z,25.31
2018-04-07T15:31:39.696Z,25.28
2018-04-07T15:34:07.075Z,25.23
2018-04-07T15:36:34.468Z,25.13
2018-04-07T15:39:01.887Z,25.13
2018-04-07T15:41:29.341Z,25.12
2018-04-07T15:43:56.864Z,25.03
2018-04-07T15:46:24.253Z,25.05
2018-04-07T15:48:51.641Z,25.08
2018-04-07T15:51:19.029Z,25.04
2018-04-07T15:53:46.433Z,25.03
2018-04-07T15:56:13.816Z,25.04
2018-04-07T15:58:41.221Z,24.98
2018-04-07T16:01:08.599Z,25.01
2018-04-07T16:03:35.981Z,24.89
2018-04-07T16:06:03.385Z,24.84
2018-04-07T16:08:30.808Z,24.84
2018-04-07T16:10:58.196Z,24.84
2018-04-07T16:13:25.627Z,24.83
2018-04-07T16:15:53.020Z,24.83
2018-04-07T16:18:20.404Z,24.82
2018-04-07T16:20:47.794Z,24.82
2018-04-07T16:23:15.177Z,24.80
2018-04-07T16:25:42.568Z,24.75
2018-04-07T16:28:09.957Z,24.70
2018-04-07T16:30:37.341Z,24.65
2018-04-07T16:33:04.740Z,24.59
2018-04-07T16:35:32.483Z,24.45
2018-04-07T16:37:59.976Z,24.35
2018-04-07T16:40:27.360Z,24.32
2018-04-07T16:42:54.748Z,24.30
2018-04-07T16:45:22.163Z,24.18
2018-04-07T16:47:49.541Z,24.18
2018-04-07T16:50:17.411Z,24.08
2018-04-07T16:52:44.832Z,23.95
2018-04-07T16:55:12.268Z,23.83
2018-04-07T16:57:39.664Z,23.73
2018-04-07T17:00:07.044Z,23.70
2018-04-07T17:02:34.438Z,23.60
2018-04-07T17:05:01.820Z,23.59
2018-04-07T17:07:29.199Z,23.47
2018-04-07T17:09:56.606Z,23.49
2018-04-07T17:12:23.977Z,23.40
2018-04-07T17:14:51.365Z,23.41
2018-04-07T17:17:18.758Z,23.32
2018-04-07T17:19:46.152Z,23.22
2018-04-07T17:22:13.529Z,23.20
2018-04-07T17:24:40.923Z,23.11
2018-04-07T17:27:08.352Z,23.07
2018-04-07T17:29:35.697Z,23.03
2018-04-07T17:32:03.084Z,22.99
2018-04-07T17:34:30.667Z,22.89
2018-04-07T17:36:58.060Z,22.73
2018-04-07T17:39:25.485Z,22.68
2018-04-07T17:41:52.840Z,22.60
2018-04-07T17:44:20.232Z,22.49
2018-04-07T17:46:47.616Z,22.42
2018-04-07T17:49:14.992Z,22.31
2018-04-07T17:51:42.385Z,22.17
2018-04-07T17:54:09.776Z,22.05
2018-04-07T17:56:37.160Z,21.90
2018-04-07T17:59:04.548Z,21.77
2018-04-07T18:01:31.936Z,21.62
2018-04-07T18:03:59.328Z,21.47
2018-04-07T18:06:26.720Z,21.31
2018-04-07T18:08:54.112Z,21.27
2018-04-07T18:11:21.492Z,21.19
2018-04-07T18:13:48.889Z,21.05
2018-04-07T18:16:16.268Z,21.02
2018-04-07T18:18:43.748Z,20.90
2018-04-07T18:21:11.265Z,20.81
2018-04-07T18:23:38.668Z,20.71
2018-04-07T18:26:06.121Z,20.58
2018-04-07T18:28:33.509Z,20.50
2018-04-07T18:31:00.948Z,20.40
2018-04-07T18:33:28.362Z,20.27
2018-04-07T18:35:55.758Z,20.17
2018-04-07T18:38:23.524Z,20.05
2018-04-07T18:40:50.916Z,19.97
2018-04-07T18:43:18.308Z,19.91
2018-04-07T18:45:45.696Z,19.89
2018-04-07T18:48:13.580Z,19.85
2018-04-07T18:50:41.012Z,19.81
2018-04-07T18:53:08.416Z,19.76
2018-04-07T18:55:35.788Z,19.70
2018-04-07T18:58:03.272Z,19.64
2018-04-07T19:00:30.653Z,19.54
2018-04-07T19:02:58.056Z,19.52
2018-04-07T19:05:25.440Z,19.44
2018-04-07T19:07:52.832Z,19.30
2018-04-07T19:10:20.224Z,19.22
2018-04-07T19:12:47.638Z,19.16
2018-04-07T19:15:15.032Z,19.10
2018-04-07T19:17:42.422Z,19.07
2018-04-07T19:20:09.812Z,18.95
2018-04-07T19:22:37.201Z,18.88
2018-04-07T19:25:04.596Z,18.79
2018-04-07T19:27:31.987Z,18.72
2018-04-07T19:29:59.380Z,18.69
2018-04-07T19:32:27.354Z,18.66
2018-04-07T19:34:54.744Z,18.61
2018-04-07T19:37:22.133Z,18.56
2018-04-07T19:39:49.533Z,18.55
2018-04-07T19:42:16.933Z,18.56
2018-04-07T19:44:44.495Z,18.49
2018-04-07T19:47:11.880Z,18.43
2018-04-07T19:49:39.276Z,18.53
2018-04-07T19:52:06.653Z,18.59
2018-04-07T19:54:34.045Z,18.57
2018-04-07T19:57:01.440Z,18.53
2018-04-07T19:59:28.867Z,18.43
2018-04-07T20:01:56.240Z,18.33
2018-04-07T20:04:23.632Z,18.29
2018-04-07T20:06:51.017Z,18.30
2018-04-07T20:09:18.417Z,18.21
2018-04-07T20:11:45.800Z,18.20
2018-04-07T20:14:13.228Z,18.27
2018-04-07T20:16:40.631Z,18.22
2018-04-07T20:19:08.013Z,18.21
2018-04-07T20:21:35.395Z,18.18
2018-04-07T20:24:02.780Z,18.05
2018-04-07T20:26:30.176Z,17.96
2018-04-07T20:28:57.622Z,17.89
2018-04-07T20:31:25.000Z,17.96
2018-04-07T20:33:52.393Z,17.95
2018-04-07T20:36:19.776Z,17.89
2018-04-07T20:38:47.161Z,17.79
2018-04-07T20:41:14.548Z,17.68
2018-04-07T20:43:41.940Z,17.56
2018-04-07T20:46:09.325Z,17.53
2018-04-07T20:48:36.773Z,17.49
2018-04-07T20:51:04.140Z,17.41
2018-04-07T20:53:31.584Z,17.32
2018-04-07T20:55:58.972Z,17.23
2018-04-07T20:58:26.398Z,17.17
2018-04-07T21:00:53.776Z,17.11
2018-04-07T21:03:21.155Z,17.05
2018-04-07T21:05:48.548Z,17.03
2018-04-07T21:08:15.929Z,17.07
2018-04-07T21:10:43.323Z,17.07
2018-04-07T21:13:10.713Z,17.03
2018-04-07T21:15:38.100Z,17.01
2018-04-07T21:18:05.484Z,17.03
2018-04-07T21:20:32.872Z,17.06
2018-04-07T21:23:00.260Z,17.05
2018-04-07T21:25:27.661Z,17.08
2018-04-07T21:27:55.044Z,17.09
2018-04-07T21:30:22.420Z,17.07
2018-04-07T21:32:49.819Z,17.01
2018-04-07T21:35:17.200Z,16.98
2018-04-07T21:37:44.595Z,16.92
2018-04-07T21:40:11.981Z,16.86
2018-04-07T21:42:39.376Z,16.86
2018-04-07T21:45:06.757Z,16.86
2018-04-07T21:47:34.144Z,16.92
2018-04-07T21:50:01.529Z,16.98
2018-04-07T21:52:28.911Z,16.97
2018-04-07T21:54:56.304Z,16.97
2018-04-07T21:57:23.695Z,16.94
2018-04-07T21:59:51.085Z,17.01
2018-04-07T22:02:18.700Z,16.98
2018-04-07T22:04:46.089Z,16.95
2018-04-07T22:07:13.468Z,16.91
2018-04-07T22:09:40.910Z,16.86
2018-04-07T22:12:08.251Z,16.80
2018-04-07T22:14:35.641Z,16.75
2018-04-07T22:17:03.028Z,16.66
2018-04-07T22:19:30.409Z,16.66
2018-04-07T22:21:57.800Z,16.66
2018-04-07T22:24:25.189Z,16.67
2018-04-07T22:26:52.580Z,16.62
2018-04-07T22:29:19.960Z,16.66
2018-04-07T22:31:47.355Z,16.68
2018-04-07T22:34:14.733Z,16.73
2018-04-07T22:36:42.113Z,16.72
2018-04-07T22:39:09.505Z,16.72
2018-04-07T22:41:36.896Z,16.81
2018-04-07T22:44:04.280Z,16.75
2018-04-07T22:46:31.661Z,16.78
2018-04-07T22:48:59.063Z,16.77
2018-04-07T22:51:26.445Z,16.73
2018-04-07T22:53:53.828Z,16.76
2018-04-07T22:56:21.212Z,16.70
2018-04-07T22:58:48.915Z,16.73
2018-04-07T23:01:16.301Z,16.76
2018-04-07T23:03:43.739Z,16.70
2018-04-07T23:06:11.128Z,16.67
2018-04-07T23:08:38.504Z,16.65
2018-04-07T23:11:05.890Z,16.68
2018-04-07T23:13:33.280Z,16.61
2018-04-07T23:16:00.664Z,16.61
2018-04-07T23:18:28.048Z,16.61
2018-04-07T23:20:55.816Z,16.62
2018-04-07T23:23:23.204Z,16.57
2018-04-07T23:25:50.580Z,16.55
2018-04-07T23:28:17.976Z,16.54
2018-04-07T23:30:45.356Z,16.44
2018-04-07T23:33:12.744Z,16.42
2018-04-07T23:35:40.129Z,16.33
2018-04-07T23:38:07.521Z,16.35
2018-04-07T23:40:34.908Z,16.36
2018-04-07T23:43:02.312Z,16.29
2018-04-07T23:45:29.784Z,16.27
2018-04-07T23:47:57.236Z,16.23
2018-04-07T23:50:24.624Z,16.19
2018-04-07T23:52:52.009Z,16.13
2018-04-07T23:55:19.397Z,16.10
2018-04-07T23:57:46.777Z,16.07
